Time;durP1;ratioP1;P1;durP2;ratioP2;P2;SDS_P1;SDS_P2;PMS_P1;PMS_P2;Temp;Humidity;BMP_temperature;BMP_pressure;BME280_temperature;BME280_humidity;BME280_pressure;Samples;Min_cycle;Max_cycle;Signal;HPM_P1;HPM_P2
2022/11/08 00:02:02;;;;;;;1999.90;999.90;;;11.80;99.90;;;;;;6738591;88;20214;-78
2022/11/08 00:22:49;;;;;;;1999.90;999.90;;;11.80;99.90;;;;;;6723715;88;20708;-78
2022/11/08 00:32:50;;;;;;;1999.90;999.90;;;11.80;99.90;;;;;;6732980;88;20193;-80
2022/11/08 00:42:54;;;;;;;1999.90;999.90;;;11.80;99.90;;;;;;6728002;88;20225;-79
2022/11/08 00:52:54;;;;;;;1999.90;999.90;;;11.70;99.90;;;;;;6726578;88;20698;-79
2022/11/08 01:13:14;;;;;;;1999.90;999.90;;;11.70;99.90;;;;;;6749620;88;20274;-79
2022/11/08 01:23:17;;;;;;;1999.90;999.90;;;11.70;99.90;;;;;;6733389;88;20210;-78
2022/11/08 01:33:17;;;;;;;1999.90;999.90;;;11.80;99.90;;;;;;6737092;88;20185;-79
2022/11/08 01:43:29;;;;;;;1999.90;999.90;;;12.00;99.90;;;;;;6734093;88;20192;-80
2022/11/08 01:53:30;;;;;;;1999.90;999.90;;;12.00;99.90;;;;;;6734408;88;20210;-80
2022/11/08 02:03:33;;;;;;;1999.90;999.90;;;11.80;99.90;;;;;;6739581;88;20190;-80
2022/11/08 02:13:36;;;;;;;1999.90;999.90;;;11.70;99.90;;;;;;6735617;88;20300;-79
2022/11/08 02:23:49;;;;;;;1999.90;999.90;;;11.80;99.90;;;;;;6743088;88;20257;-79
2022/11/08 02:33:50;;;;;;;1999.90;999.90;;;11.80;99.90;;;;;;6735930;88;20195;-80
2022/11/08 02:54:52;;;;;;;1999.90;999.90;;;11.50;99.90;;;;;;6666139;88;20218;-75
2022/11/08 03:04:53;;;;;;;1999.90;999.90;;;11.40;99.90;;;;;;6696904;88;20184;-77
2022/11/08 03:14:53;;;;;;;1999.90;999.90;;;11.30;99.90;;;;;;6684644;88;20217;-78
2022/11/08 03:24:54;;;;;;;1999.90;999.90;;;11.10;99.90;;;;;;6698427;88;20253;-77
2022/11/08 03:34:54;;;;;;;1999.90;999.90;;;11.10;99.90;;;;;;6679202;88;20205;-77
2022/11/08 03:44:55;;;;;;;1999.90;999.90;;;11.00;99.90;;;;;;6670015;88;20191;-77
2022/11/08 03:54:55;;;;;;;1999.90;999.90;;;10.90;99.90;;;;;;6676106;88;20219;-78
2022/11/08 04:04:56;;;;;;;1999.90;999.90;;;10.90;99.90;;;;;;6691690;88;20192;-74
2022/11/08 04:15:14;;;;;;;1999.90;999.90;;;10.90;99.90;;;;;;6676223;88;20224;-76
2022/11/08 04:25:15;;;;;;;1999.90;999.90;;;10.80;99.90;;;;;;6673092;88;20204;-77
2022/11/08 04:35:15;;;;;;;1999.90;999.90;;;10.70;99.90;;;;;;6673433;88;20224;-77
2022/11/08 04:45:16;;;;;;;1999.90;999.90;;;10.70;99.90;;;;;;6697384;88;20995;-76
2022/11/08 04:55:17;;;;;;;1999.90;999.90;;;10.80;99.90;;;;;;6672221;88;20204;-76
2022/11/08 05:05:18;;;;;;;1999.90;999.90;;;10.80;99.90;;;;;;6693306;88;20198;-76
2022/11/08 05:15:18;;;;;;;1999.90;999.90;;;10.80;99.90;;;;;;6684478;88;20200;-76
2022/11/08 05:25:19;;;;;;;1999.90;999.90;;;10.80;99.90;;;;;;6675403;88;20258;-77
2022/11/08 05:35:21;;;;;;;1999.90;999.90;;;10.70;99.90;;;;;;6670219;89;20204;-76
2022/11/08 05:45:22;;;;;;;1999.90;999.90;;;10.70;99.90;;;;;;6677686;88;20192;-76
2022/11/08 05:55:22;;;;;;;1999.90;999.90;;;10.70;99.90;;;;;;6663062;88;20879;-76
2022/11/08 06:06:07;;;;;;;1999.90;999.90;;;10.70;99.90;;;;;;6679080;89;20164;-77
2022/11/08 06:16:10;;;;;;;1999.90;999.90;;;10.70;99.90;;;;;;6694257;88;20208;-76
2022/11/08 06:26:11;;;;;;;1999.90;999.90;;;10.70;99.90;;;;;;6689811;88;20214;-76
2022/11/08 06:36:12;;;;;;;1999.90;999.90;;;10.70;99.90;;;;;;6670492;89;20213;-77
2022/11/08 06:46:13;;;;;;;1999.90;999.90;;;10.80;99.90;;;;;;6660841;89;20306;-77
2022/11/08 06:56:13;;;;;;;1999.90;999.90;;;11.00;99.90;;;;;;6666499;89;20339;-77
2022/11/08 07:06:14;;;;;;;1999.90;999.90;;;11.10;99.90;;;;;;6667629;88;20246;-76
2022/11/08 07:16:14;;;;;;;1999.90;999.90;;;11.30;99.90;;;;;;6691431;88;20233;-77
2022/11/08 07:26:15;;;;;;;1999.90;999.90;;;11.40;99.90;;;;;;6667987;89;20211;-78
2022/11/08 07:36:15;;;;;;;1999.90;999.90;;;11.40;99.90;;;;;;6670913;88;20207;-78
2022/11/08 07:46:16;;;;;;;1999.90;999.90;;;11.40;99.90;;;;;;6683385;88;20188;-77
2022/11/08 07:56:16;;;;;;;1999.90;999.90;;;11.60;99.90;;;;;;6696070;88;20229;-78
2022/11/08 08:06:17;;;;;;;1999.90;999.90;;;11.90;99.90;;;;;;6683717;88;20764;-77
2022/11/08 08:16:17;;;;;;;1999.90;999.90;;;11.90;99.90;;;;;;6676819;88;20722;-78
2022/11/08 08:26:18;;;;;;;1999.90;999.90;;;12.20;99.90;;;;;;6695717;88;20203;-77
2022/11/08 08:36:18;;;;;;;1999.90;999.90;;;12.40;99.90;;;;;;6668151;89;20220;-77
2022/11/08 08:46:39;;;;;;;1999.90;999.90;;;12.40;99.90;;;;;;6719510;77;20189;-80
2022/11/08 08:56:40;;;;;;;1999.90;999.90;;;12.70;99.90;;;;;;6732025;88;20174;-79
2022/11/08 09:06:41;;;;;;;1999.90;999.90;;;12.70;99.90;;;;;;6730309;88;20203;-80
2022/11/08 09:16:41;;;;;;;1999.90;999.90;;;12.70;99.90;;;;;;6644302;89;20181;-79
2022/11/08 09:26:42;;;;;;;1999.90;999.90;;;12.70;99.90;;;;;;6647612;89;20219;-79
2022/11/08 09:36:42;;;;;;;1999.90;999.90;;;12.70;99.90;;;;;;6724183;88;20756;-80
2022/11/08 09:46:55;;;;;;;1999.90;999.90;;;12.60;99.90;;;;;;6732369;88;20263;-79
2022/11/08 09:56:57;;;;;;;1999.90;999.90;;;12.50;99.90;;;;;;6640185;89;20221;-79
2022/11/08 10:07:20;;;;;;;1999.90;999.90;;;12.40;99.90;;;;;;6642615;88;20731;-79
2022/11/08 10:17:45;;;;;;;1999.90;999.90;;;12.40;99.90;;;;;;6642787;89;20640;-80
2022/11/08 10:27:45;;;;;;;1999.90;999.90;;;12.60;99.90;;;;;;6740623;88;20280;-78
2022/11/08 10:37:50;;;;;;;1999.90;999.90;;;12.60;99.90;;;;;;6733574;88;20618;-79
2022/11/08 10:47:53;;;;;;;1999.90;999.90;;;12.70;99.90;;;;;;6643919;89;20222;-79
2022/11/08 10:57:53;;;;;;;1999.90;999.90;;;12.70;99.90;;;;;;6674881;88;20182;-79
2022/11/08 11:08:09;;;;;;;1999.90;999.90;;;12.90;99.90;;;;;;6644269;88;20233;-79
2022/11/08 11:18:22;;;;;;;1999.90;999.90;;;13.00;99.90;;;;;;6692258;88;20500;-81
2022/11/08 11:28:23;;;;;;;1999.90;999.90;;;13.00;99.90;;;;;;6727521;88;20204;-81
2022/11/08 11:38:43;;;;;;;1999.90;999.90;;;13.10;99.90;;;;;;6710796;88;20190;-80
2022/11/08 11:48:46;;;;;;;1999.90;999.90;;;13.30;99.90;;;;;;6731627;88;20182;-80
2022/11/08 11:59:11;;;;;;;1999.90;999.90;;;13.40;99.90;;;;;;6726555;88;20208;-80
2022/11/08 12:09:41;;;;;;;1999.90;999.90;;;13.50;99.90;;;;;;6736032;88;20213;-79
2022/11/08 12:19:49;;;;;;;1999.90;999.90;;;13.90;99.90;;;;;;6730030;88;20260;-80
2022/11/08 12:30:10;;;;;;;1999.90;999.90;;;14.00;99.90;;;;;;6727741;88;20599;-81
2022/11/08 12:40:20;;;;;;;1999.90;999.90;;;14.10;99.90;;;;;;6731351;88;20294;-79
2022/11/08 12:51:00;;;;;;;1999.90;999.90;;;14.30;99.90;;;;;;6730469;88;20202;-80
2022/11/08 13:01:05;;;;;;;1999.90;999.90;;;14.50;99.90;;;;;;6723830;88;20201;-80
2022/11/08 13:11:10;;;;;;;1999.90;999.90;;;15.40;99.90;;;;;;6733721;88;20329;-81
2022/11/08 13:21:37;;;;;;;1999.90;999.90;;;16.40;99.90;;;;;;6718729;88;20205;-81
2022/11/08 13:31:37;;;;;;;1999.90;999.90;;;16.70;99.90;;;;;;6641148;89;20661;-81
2022/11/08 13:42:14;;;;;;;1999.90;999.90;;;16.80;99.90;;;;;;6690804;88;20210;-80
2022/11/08 13:52:43;;;;;;;1999.90;999.90;;;16.80;99.90;;;;;;6718452;88;20283;-80
2022/11/08 14:02:43;;;;;;;1999.90;999.90;;;16.80;99.90;;;;;;6721538;88;20244;-79
2022/11/08 14:13:04;;;;;;;1999.90;999.90;;;16.90;99.90;;;;;;6724495;88;20269;-81
2022/11/08 14:23:29;;;;;;;1999.90;999.90;;;17.40;99.90;;;;;;6727641;88;20253;-80
2022/11/08 14:33:32;;;;;;;1999.90;999.90;;;17.90;99.90;;;;;;6730020;88;20218;-79
2022/11/08 14:53:53;;;;;;;1999.90;999.90;;;17.30;99.90;;;;;;6780454;87;20320;-78
2022/11/08 15:03:56;;;;;;;1999.90;999.90;;;17.20;99.90;;;;;;6764222;87;20220;-78
2022/11/08 15:14:03;;;;;;;1999.90;999.90;;;17.20;99.90;;;;;;6779655;87;20678;-79
2022/11/08 15:24:13;;;;;;;1999.90;999.90;;;17.00;99.90;;;;;;6770015;87;20310;-78
2022/11/08 15:34:39;;;;;;;1999.90;999.90;;;17.00;99.90;;;;;;6768521;87;20181;-78
2022/11/08 15:45:03;;;;;;;1999.90;999.90;;;17.00;99.90;;;;;;6766060;87;20196;-79
2022/11/08 15:55:04;;;;;;;1999.90;999.90;;;16.90;99.90;;;;;;6763559;87;20171;-78
2022/11/08 16:05:21;;;;;;;1999.90;999.90;;;16.80;99.90;;;;;;6761119;87;20209;-79
2022/11/08 16:15:23;;;;;;;1999.90;999.90;;;16.70;99.90;;;;;;6760677;87;20217;-78
2022/11/08 16:25:26;;;;;;;1999.90;999.90;;;16.70;99.90;;;;;;6762185;87;20243;-78
2022/11/08 16:35:26;;;;;;;1999.90;999.90;;;16.60;99.90;;;;;;6769949;87;20203;-79
2022/11/08 16:45:27;;;;;;;1999.90;999.90;;;16.60;99.90;;;;;;6756188;88;20577;-78
2022/11/08 16:55:28;;;;;;;1999.90;999.90;;;16.50;99.90;;;;;;6768344;87;20202;-77
2022/11/08 17:05:29;;;;;;;1999.90;999.90;;;16.40;99.90;;;;;;6773585;87;20184;-79
2022/11/08 17:15:30;;;;;;;1999.90;999.90;;;16.30;99.90;;;;;;6773903;87;20217;-77
2022/11/08 17:25:31;;;;;;;1999.90;999.90;;;16.30;99.90;;;;;;6771798;87;20197;-78
2022/11/08 17:45:50;;;;;;;1999.90;999.90;;;16.20;99.90;;;;;;6764486;87;21036;-77
2022/11/08 17:55:56;;;;;;;1999.90;999.90;;;16.10;99.90;;;;;;6770599;87;20197;-77
2022/11/08 18:06:06;;;;;;;1999.90;999.90;;;16.10;99.90;;;;;;6765222;87;20618;-78
2022/11/08 18:16:10;;;;;;;1999.90;999.90;;;16.00;99.90;;;;;;6781354;87;20223;-78
2022/11/08 18:26:12;;;;;;;1999.90;999.90;;;16.20;99.90;;;;;;6766159;87;20619;-77
2022/11/08 18:36:18;;;;;;;1999.90;999.90;;;16.10;99.90;;;;;;6759676;87;20205;-76
2022/11/08 18:46:23;;;;;;;1999.90;999.90;;;16.20;99.90;;;;;;6759748;87;20341;-77
2022/11/08 18:56:24;;;;;;;1999.90;999.90;;;16.50;99.90;;;;;;6753055;87;20674;-76
2022/11/08 19:06:24;;;;;;;1999.90;999.90;;;16.50;99.90;;;;;;6758833;87;20219;-78
2022/11/08 19:16:25;;;;;;;1999.90;999.90;;;16.30;99.90;;;;;;6755775;88;20711;-78
2022/11/08 19:26:26;;;;;;;1999.90;999.90;;;16.00;99.90;;;;;;6778679;87;20219;-77
2022/11/08 19:36:28;;;;;;;1999.90;999.90;;;15.90;99.90;;;;;;6769543;87;20181;-78
2022/11/08 19:46:30;;;;;;;1999.90;999.90;;;15.80;99.90;;;;;;6763570;87;20221;-79
2022/11/08 19:56:31;;;;;;;1999.90;999.90;;;15.80;99.90;;;;;;6771683;87;20196;-79
2022/11/08 20:06:33;;;;;;;1999.90;999.90;;;16.00;99.90;;;;;;6761234;87;20202;-78
2022/11/08 20:16:40;;;;;;;1999.90;999.90;;;16.10;99.90;;;;;;6762069;87;20192;-79
2022/11/08 20:26:41;;;;;;;1999.90;999.90;;;16.00;99.90;;;;;;6761373;87;20203;-79
2022/11/08 20:36:42;;;;;;;1999.90;999.90;;;16.30;99.90;;;;;;6766749;87;20212;-78
2022/11/08 20:46:43;;;;;;;1999.90;999.90;;;16.70;99.90;;;;;;6745225;87;20248;-80
2022/11/08 20:56:44;;;;;;;1999.90;999.90;;;16.70;99.90;;;;;;6695017;89;20280;-79
2022/11/08 21:06:45;;;;;;;1999.90;999.90;;;16.60;99.90;;;;;;6693206;87;20229;-78
2022/11/08 21:16:45;;;;;;;1999.90;999.90;;;16.40;99.90;;;;;;6686483;89;20206;-78
2022/11/08 21:26:46;;;;;;;1999.90;999.90;;;16.20;99.90;;;;;;6684896;89;20230;-77
2022/11/08 21:36:47;;;;;;;1999.90;999.90;;;16.10;99.90;;;;;;6678856;89;20572;-79
2022/11/08 21:46:47;;;;;;;1999.90;999.90;;;15.90;99.90;;;;;;6678167;89;20217;-78
2022/11/08 21:56:48;;;;;;;1999.90;999.90;;;15.80;99.90;;;;;;6682083;89;20234;-79
2022/11/08 22:06:48;;;;;;;1999.90;999.90;;;15.70;99.90;;;;;;6696108;88;20941;-78
2022/11/08 22:16:49;;;;;;;1999.90;999.90;;;15.60;99.90;;;;;;6676878;89;20517;-78
2022/11/08 22:26:51;;;;;;;1999.90;999.90;;;15.70;99.90;;;;;;6700030;88;20536;-78
2022/11/08 22:36:54;;;;;;;1999.90;999.90;;;15.60;99.90;;;;;;6679311;89;20215;-78
2022/11/08 22:46:55;;;;;;;1999.90;999.90;;;15.30;99.90;;;;;;6679877;89;20209;-78
2022/11/08 22:56:55;;;;;;;1999.90;999.90;;;15.10;99.90;;;;;;6680872;87;20178;-78
2022/11/08 23:06:56;;;;;;;1999.90;999.90;;;14.90;99.90;;;;;;6698201;88;20202;-78
2022/11/08 23:16:56;;;;;;;1999.90;999.90;;;14.90;99.90;;;;;;6686573;87;20635;-78
2022/11/08 23:37:20;;;;;;;1999.90;999.90;;;14.90;99.90;;;;;;6700084;89;20191;-78
2022/11/08 23:47:20;;;;;;;1999.90;999.90;;;15.00;99.90;;;;;;6702312;87;20209;-76
2022/11/08 23:57:21;;;;;;;1999.90;999.90;;;14.90;99.90;;;;;;6768906;87;20181;-79
